Time;durP1;ratioP1;P1;durP2;ratioP2;P2;SDS_P1;SDS_P2;PMS_P1;PMS_P2;Temp;Humidity;BMP_temperature;BMP_pressure;BME280_temperature;BME280_humidity;BME280_pressure;Samples;Min_cycle;Max_cycle;Signal;HPM_P1;HPM_P2
2022/03/24 00:01:45;;;;;;;51.60;28.70;;;;;;;;;;5116698;28;20394;-54
2022/03/24 00:04:11;;;;;;;49.63;28.37;;;;;;;;;;5116610;28;20755;-58
2022/03/24 00:06:37;;;;;;;58.73;28.27;;;;;;;;;;5098282;28;20773;-58
2022/03/24 00:09:04;;;;;;;62.03;27.70;;;;;;;;;;5116559;28;20400;-54
2022/03/24 00:11:30;;;;;;;49.07;27.80;;;;;;;;;;5116530;28;20735;-56
2022/03/24 00:13:56;;;;;;;56.83;30.13;;;;;;;;;;5116569;28;20813;-57
2022/03/24 00:16:22;;;;;;;50.50;27.63;;;;;;;;;;5116407;28;20466;-54
2022/03/24 00:18:49;;;;;;;48.00;27.10;;;;;;;;;;5116144;28;20960;-57
2022/03/24 00:21:16;;;;;;;57.43;28.73;;;;;;;;;;5097931;28;20481;-54
2022/03/24 00:23:42;;;;;;;61.07;27.87;;;;;;;;;;5116284;28;20396;-54
2022/03/24 00:26:08;;;;;;;56.43;28.90;;;;;;;;;;5116274;28;20412;-56
2022/03/24 00:28:35;;;;;;;60.20;29.13;;;;;;;;;;5115948;28;20470;-56
2022/03/24 00:31:02;;;;;;;51.47;29.37;;;;;;;;;;5116192;28;20449;-56
2022/03/24 00:33:28;;;;;;;52.33;29.70;;;;;;;;;;5116212;28;20468;-57
2022/03/24 00:35:54;;;;;;;52.50;28.97;;;;;;;;;;5116185;28;20808;-54
2022/03/24 00:38:20;;;;;;;53.40;28.30;;;;;;;;;;5115968;28;20405;-59
2022/03/24 00:40:46;;;;;;;54.73;28.50;;;;;;;;;;5097659;28;20416;-58
2022/03/24 00:43:12;;;;;;;54.53;27.80;;;;;;;;;;5115875;28;20444;-58
2022/03/24 00:45:42;;;;;;;54.80;27.77;;;;;;;;;;5115822;28;20408;-54
2022/03/24 00:48:08;;;;;;;59.53;28.50;;;;;;;;;;5115828;28;20443;-53
2022/03/24 00:50:35;;;;;;;50.93;26.03;;;;;;;;;;5115895;28;20750;-55
2022/03/24 00:53:04;;;;;;;54.40;29.30;;;;;;;;;;5115587;28;20400;-52
2022/03/24 00:55:30;;;;;;;53.73;27.67;;;;;;;;;;5115632;28;20508;-54
2022/03/24 00:57:56;;;;;;;50.97;27.97;;;;;;;;;;5097602;28;20966;-53
2022/03/24 01:00:27;;;;;;;50.60;25.70;;;;;;;;;;5114807;28;20933;-56
2022/03/24 01:02:54;;;;;;;48.97;26.43;;;;;;;;;;5097589;28;20780;-59
2022/03/24 01:05:21;;;;;;;49.93;27.10;;;;;;;;;;5115401;28;20466;-58
2022/03/24 01:07:49;;;;;;;48.30;25.70;;;;;;;;;;5115466;28;20875;-58
2022/03/24 01:10:16;;;;;;;46.63;25.87;;;;;;;;;;5115302;28;20497;-56
2022/03/24 01:12:42;;;;;;;48.47;27.10;;;;;;;;;;5115360;28;20405;-54
2022/03/24 01:15:09;;;;;;;56.37;26.60;;;;;;;;;;5115119;28;20470;-54
2022/03/24 01:17:35;;;;;;;47.87;27.00;;;;;;;;;;5115311;28;20470;-56
2022/03/24 01:20:03;;;;;;;46.77;25.37;;;;;;;;;;5096727;28;20878;-58
2022/03/24 01:22:29;;;;;;;46.13;26.63;;;;;;;;;;5115076;28;20408;-56
2022/03/24 01:24:56;;;;;;;49.63;26.60;;;;;;;;;;5115339;28;20409;-59
2022/03/24 01:27:25;;;;;;;51.33;26.50;;;;;;;;;;5115142;28;20488;-59
2022/03/24 01:29:53;;;;;;;46.70;26.50;;;;;;;;;;5115019;28;20400;-58
2022/03/24 01:32:19;;;;;;;48.43;24.97;;;;;;;;;;5096723;28;20428;-56
2022/03/24 01:34:45;;;;;;;51.10;25.60;;;;;;;;;;5114952;28;20465;-54
2022/03/24 01:37:11;;;;;;;60.33;27.30;;;;;;;;;;5114918;28;20398;-58
2022/03/24 01:39:38;;;;;;;50.50;27.47;;;;;;;;;;5114802;28;20414;-53
2022/03/24 01:42:05;;;;;;;47.80;25.70;;;;;;;;;;5114816;28;20405;-54
2022/03/24 01:44:34;;;;;;;49.33;27.20;;;;;;;;;;5114725;28;20844;-55
2022/03/24 01:47:05;;;;;;;47.63;26.37;;;;;;;;;;5114683;28;20405;-53
2022/03/24 01:49:32;;;;;;;48.77;25.23;;;;;;;;;;5114877;28;20409;-53
2022/03/24 01:51:59;;;;;;;51.40;26.03;;;;;;;;;;5114693;28;20404;-55
2022/03/24 01:54:27;;;;;;;52.30;27.00;;;;;;;;;;5114665;28;20559;-57
2022/03/24 01:56:53;;;;;;;50.13;25.83;;;;;;;;;;5096166;28;20431;-53
2022/03/24 01:59:19;;;;;;;45.73;24.40;;;;;;;;;;5114297;28;20423;-57
2022/03/24 02:01:46;;;;;;;53.53;26.63;;;;;;;;;;5114428;28;20411;-55
2022/03/24 02:04:14;;;;;;;48.13;25.60;;;;;;;;;;5114196;28;20486;-60
2022/03/24 02:06:40;;;;;;;48.60;25.80;;;;;;;;;;5095978;28;20479;-57
2022/03/24 02:09:06;;;;;;;48.83;24.77;;;;;;;;;;5114296;28;20417;-54
2022/03/24 02:11:33;;;;;;;54.63;25.30;;;;;;;;;;5113968;28;20558;-54
2022/03/24 02:14:00;;;;;;;50.63;27.10;;;;;;;;;;5113284;28;20461;-53
2022/03/24 02:16:30;;;;;;;46.60;25.30;;;;;;;;;;5096101;28;20428;-52
2022/03/24 02:18:59;;;;;;;52.03;24.17;;;;;;;;;;5114038;28;20456;-54
2022/03/24 02:21:25;;;;;;;51.67;26.73;;;;;;;;;;5114019;28;20412;-59
2022/03/24 02:23:51;;;;;;;47.57;23.97;;;;;;;;;;5114084;28;20555;-58
2022/03/24 02:26:18;;;;;;;48.23;25.70;;;;;;;;;;5113983;28;20405;-58
2022/03/24 02:28:45;;;;;;;49.50;24.60;;;;;;;;;;5113866;28;20978;-52
2022/03/24 02:31:16;;;;;;;49.80;25.40;;;;;;;;;;5113811;28;20413;-57
2022/03/24 02:33:42;;;;;;;50.67;26.10;;;;;;;;;;5113598;28;20540;-56
2022/03/24 02:36:09;;;;;;;46.03;23.80;;;;;;;;;;5113686;28;20413;-57
2022/03/24 02:38:38;;;;;;;47.47;25.50;;;;;;;;;;5113813;28;20393;-58
2022/03/24 02:41:04;;;;;;;47.53;25.10;;;;;;;;;;5113547;28;20455;-57
2022/03/24 02:43:31;;;;;;;51.20;25.90;;;;;;;;;;5113608;28;20428;-58
2022/03/24 02:45:57;;;;;;;50.63;24.90;;;;;;;;;;5113795;28;20397;-54
2022/03/24 02:48:23;;;;;;;51.73;25.07;;;;;;;;;;5113555;28;20443;-53
2022/03/24 02:50:49;;;;;;;54.70;26.37;;;;;;;;;;5113423;28;20465;-56
2022/03/24 02:53:16;;;;;;;46.20;25.23;;;;;;;;;;5113362;28;20476;-59
2022/03/24 02:55:42;;;;;;;48.00;25.17;;;;;;;;;;5113410;28;20527;-59
2022/03/24 02:58:08;;;;;;;56.27;25.63;;;;;;;;;;5113437;28;20893;-55
2022/03/24 03:00:38;;;;;;;47.70;25.23;;;;;;;;;;5113403;28;20462;-57
2022/03/24 03:03:04;;;;;;;48.73;25.37;;;;;;;;;;5113292;28;20458;-53
2022/03/24 03:05:30;;;;;;;51.83;25.17;;;;;;;;;;5113377;28;20416;-61
2022/03/24 03:07:56;;;;;;;43.83;24.77;;;;;;;;;;5113522;28;20450;-61
2022/03/24 03:10:22;;;;;;;47.60;24.80;;;;;;;;;;5094930;28;20511;-55
2022/03/24 03:12:48;;;;;;;53.60;26.50;;;;;;;;;;5113195;28;20779;-56
2022/03/24 03:15:17;;;;;;;53.27;25.70;;;;;;;;;;5113028;28;20468;-59
2022/03/24 03:17:43;;;;;;;55.03;27.30;;;;;;;;;;5107275;28;20416;-59
2022/03/24 03:20:10;;;;;;;51.77;25.20;;;;;;;;;;5100637;28;20453;-58
2022/03/24 03:22:37;;;;;;;50.10;27.00;;;;;;;;;;5092609;28;20402;-66
2022/03/24 03:25:03;;;;;;;52.80;27.53;;;;;;;;;;5092342;28;20929;-60
2022/03/24 03:27:31;;;;;;;49.33;26.00;;;;;;;;;;5074666;28;20418;-57
2022/03/24 03:29:57;;;;;;;53.40;25.73;;;;;;;;;;5092882;28;20478;-57
2022/03/24 03:32:24;;;;;;;50.00;27.00;;;;;;;;;;5074858;28;20426;-60
2022/03/24 03:34:50;;;;;;;63.33;26.57;;;;;;;;;;5092547;28;20873;-58
2022/03/24 03:37:16;;;;;;;55.20;26.17;;;;;;;;;;5095247;28;20424;-56
2022/03/24 03:39:42;;;;;;;51.20;25.70;;;;;;;;;;5102362;28;20402;-61
2022/03/24 03:42:08;;;;;;;54.27;25.30;;;;;;;;;;5101323;28;20405;-59
2022/03/24 03:44:35;;;;;;;56.40;27.40;;;;;;;;;;5103113;28;20407;-57
2022/03/24 03:47:01;;;;;;;60.60;26.43;;;;;;;;;;5102152;28;20513;-56
2022/03/24 03:49:28;;;;;;;51.00;25.60;;;;;;;;;;5113100;28;20412;-55
2022/03/24 03:51:55;;;;;;;54.07;27.00;;;;;;;;;;5112824;28;20413;-59
2022/03/24 03:54:21;;;;;;;47.90;27.07;;;;;;;;;;5112721;28;20493;-57
2022/03/24 03:56:47;;;;;;;49.10;25.77;;;;;;;;;;5112785;28;20917;-54
2022/03/24 03:59:13;;;;;;;52.53;26.47;;;;;;;;;;5112756;28;20409;-53
2022/03/24 04:01:39;;;;;;;53.30;27.27;;;;;;;;;;5112782;28;20441;-53
2022/03/24 04:04:12;;;;;;;58.20;27.17;;;;;;;;;;5112619;28;20458;-56
2022/03/24 04:06:38;;;;;;;51.07;27.63;;;;;;;;;;5112656;28;20405;-58
2022/03/24 04:09:04;;;;;;;46.07;26.43;;;;;;;;;;5112565;28;20469;-54
2022/03/24 04:11:30;;;;;;;51.93;26.97;;;;;;;;;;5112303;28;20492;-54
2022/03/24 04:13:56;;;;;;;48.73;26.13;;;;;;;;;;5094571;28;20559;-52
2022/03/24 04:16:22;;;;;;;51.70;27.73;;;;;;;;;;5108889;28;20417;-53
2022/03/24 04:18:49;;;;;;;58.07;27.23;;;;;;;;;;5112227;28;20452;-59
2022/03/24 04:21:16;;;;;;;47.40;25.30;;;;;;;;;;5112387;28;20409;-55
2022/03/24 04:23:45;;;;;;;50.23;25.90;;;;;;;;;;5093825;28;20876;-55
2022/03/24 04:26:11;;;;;;;45.93;25.40;;;;;;;;;;5112637;28;20504;-53
2022/03/24 04:28:38;;;;;;;52.83;25.10;;;;;;;;;;5097397;28;20424;-53
2022/03/24 04:31:04;;;;;;;57.23;26.70;;;;;;;;;;5100800;28;20496;-55
2022/03/24 04:33:31;;;;;;;55.00;27.20;;;;;;;;;;5091914;28;20449;-53
2022/03/24 04:35:58;;;;;;;55.23;26.53;;;;;;;;;;5092970;28;20425;-52
2022/03/24 04:38:27;;;;;;;53.20;25.97;;;;;;;;;;5095493;28;20959;-54
2022/03/24 04:40:54;;;;;;;52.70;27.37;;;;;;;;;;5095665;28;20497;-53
2022/03/24 04:43:20;;;;;;;51.00;26.43;;;;;;;;;;5103770;28;20409;-54
2022/03/24 04:45:49;;;;;;;50.57;26.63;;;;;;;;;;5105659;28;20412;-55
2022/03/24 04:48:15;;;;;;;54.23;26.43;;;;;;;;;;5105847;28;20416;-56
2022/03/24 04:50:42;;;;;;;55.13;28.33;;;;;;;;;;5103910;28;20402;-54
2022/03/24 04:53:15;;;;;;;50.07;25.50;;;;;;;;;;5109718;28;20415;-56
2022/03/24 04:55:45;;;;;;;53.33;26.90;;;;;;;;;;5109487;28;20436;-58
2022/03/24 04:58:11;;;;;;;55.30;26.60;;;;;;;;;;5103710;28;20425;-57
2022/03/24 05:00:40;;;;;;;48.43;25.27;;;;;;;;;;5112623;28;20767;-56
2022/03/24 05:03:06;;;;;;;50.53;27.13;;;;;;;;;;5097243;28;20409;-54
2022/03/24 05:05:32;;;;;;;56.80;27.20;;;;;;;;;;5115397;28;20404;-55
2022/03/24 05:07:59;;;;;;;55.07;28.47;;;;;;;;;;5115587;28;20408;-54
2022/03/24 05:10:25;;;;;;;51.03;25.67;;;;;;;;;;5115516;28;20412;-57
2022/03/24 05:12:51;;;;;;;56.90;27.80;;;;;;;;;;5115287;28;20401;-55
2022/03/24 05:15:17;;;;;;;55.20;26.77;;;;;;;;;;5115171;28;20465;-53
2022/03/24 05:17:43;;;;;;;54.93;26.60;;;;;;;;;;5115221;28;20405;-53
2022/03/24 05:20:09;;;;;;;61.97;28.00;;;;;;;;;;5114986;28;20468;-57
2022/03/24 05:22:36;;;;;;;51.27;26.83;;;;;;;;;;5115103;28;20427;-54
2022/03/24 05:25:03;;;;;;;52.30;26.00;;;;;;;;;;5115128;28;20401;-56
2022/03/24 05:27:29;;;;;;;62.67;27.17;;;;;;;;;;5096641;28;20499;-52
2022/03/24 05:29:55;;;;;;;53.93;27.73;;;;;;;;;;5115059;28;20404;-57
2022/03/24 05:32:22;;;;;;;60.13;29.50;;;;;;;;;;5114633;28;20409;-55
2022/03/24 05:34:48;;;;;;;53.07;27.93;;;;;;;;;;5114547;28;20468;-56
2022/03/24 05:37:15;;;;;;;57.83;27.50;;;;;;;;;;5114827;28;20405;-56
2022/03/24 05:39:42;;;;;;;52.60;28.23;;;;;;;;;;5096347;28;20424;-55
2022/03/24 05:42:08;;;;;;;55.07;28.23;;;;;;;;;;5114716;28;20401;-60
2022/03/24 05:44:35;;;;;;;56.67;28.87;;;;;;;;;;5114763;28;20441;-55
2022/03/24 05:47:01;;;;;;;61.50;29.27;;;;;;;;;;5114189;28;20409;-56
2022/03/24 05:49:27;;;;;;;54.47;28.43;;;;;;;;;;5114703;28;20898;-55
2022/03/24 05:51:53;;;;;;;57.43;30.30;;;;;;;;;;5114546;28;20432;-55
2022/03/24 05:54:22;;;;;;;56.67;29.40;;;;;;;;;;5114478;28;20517;-53
2022/03/24 05:56:48;;;;;;;56.07;28.73;;;;;;;;;;5114556;28;20432;-55
2022/03/24 05:59:15;;;;;;;50.77;28.43;;;;;;;;;;5114481;28;20424;-54
2022/03/24 06:01:45;;;;;;;59.73;30.10;;;;;;;;;;5114471;28;20916;-56
2022/03/24 06:04:15;;;;;;;53.43;27.23;;;;;;;;;;5114381;28;20401;-57
2022/03/24 06:06:42;;;;;;;53.90;27.80;;;;;;;;;;5114528;28;20481;-56
2022/03/24 06:09:09;;;;;;;53.43;27.27;;;;;;;;;;5114036;28;20428;-57
2022/03/24 06:11:36;;;;;;;53.70;27.70;;;;;;;;;;5114196;28;20448;-56
2022/03/24 06:14:02;;;;;;;57.80;28.13;;;;;;;;;;5095534;28;20544;-55
2022/03/24 06:16:28;;;;;;;53.20;28.73;;;;;;;;;;5113991;28;20492;-55
2022/03/24 06:18:54;;;;;;;53.27;27.37;;;;;;;;;;5113829;28;20452;-55
2022/03/24 06:21:20;;;;;;;48.80;27.40;;;;;;;;;;5113951;28;20808;-54
2022/03/24 06:23:50;;;;;;;52.77;26.70;;;;;;;;;;5113860;28;20416;-54
2022/03/24 06:26:18;;;;;;;57.50;28.70;;;;;;;;;;5113804;28;20405;-54
2022/03/24 06:28:44;;;;;;;50.90;28.07;;;;;;;;;;5113610;28;20424;-54
2022/03/24 06:31:12;;;;;;;55.37;28.70;;;;;;;;;;5095169;28;20751;-53
2022/03/24 06:33:38;;;;;;;54.17;28.73;;;;;;;;;;5113464;28;20460;-54
2022/03/24 06:36:04;;;;;;;56.87;29.67;;;;;;;;;;5113708;28;20481;-56
2022/03/24 06:38:30;;;;;;;50.73;27.97;;;;;;;;;;5113542;28;20490;-54
2022/03/24 06:40:56;;;;;;;56.13;29.00;;;;;;;;;;5113560;28;20416;-52
2022/03/24 06:43:25;;;;;;;64.17;29.60;;;;;;;;;;5113321;28;20409;-54
2022/03/24 06:45:51;;;;;;;57.47;28.47;;;;;;;;;;5113152;28;20749;-58
2022/03/24 06:48:17;;;;;;;54.73;29.97;;;;;;;;;;5113400;28;20413;-55
2022/03/24 06:50:43;;;;;;;51.80;28.20;;;;;;;;;;5113244;28;20476;-55
2022/03/24 06:53:09;;;;;;;53.70;29.17;;;;;;;;;;5113120;28;20770;-55
2022/03/24 06:55:35;;;;;;;58.30;31.40;;;;;;;;;;5113152;28;20409;-54
2022/03/24 06:58:01;;;;;;;54.37;30.03;;;;;;;;;;5112790;28;20455;-57
2022/03/24 07:00:27;;;;;;;55.47;29.70;;;;;;;;;;5113091;28;20436;-55
2022/03/24 07:02:53;;;;;;;65.23;30.50;;;;;;;;;;5113153;28;20408;-57
2022/03/24 07:05:19;;;;;;;54.83;30.80;;;;;;;;;;5113055;28;20564;-52
2022/03/24 07:07:45;;;;;;;54.20;30.47;;;;;;;;;;5113102;28;20760;-53
2022/03/24 07:10:11;;;;;;;62.43;31.13;;;;;;;;;;5112969;28;20405;-53
2022/03/24 07:12:38;;;;;;;64.93;32.57;;;;;;;;;;5113101;28;20757;-55
2022/03/24 07:15:07;;;;;;;57.60;31.53;;;;;;;;;;5112841;28;20464;-55
2022/03/24 07:17:34;;;;;;;66.60;31.77;;;;;;;;;;5094672;28;20448;-54
2022/03/24 07:20:00;;;;;;;60.70;31.07;;;;;;;;;;5094428;28;20492;-55
2022/03/24 07:22:31;;;;;;;56.93;30.70;;;;;;;;;;5113011;28;20405;-53
2022/03/24 07:24:57;;;;;;;55.60;30.60;;;;;;;;;;5113026;28;20458;-54
2022/03/24 07:27:23;;;;;;;59.93;30.90;;;;;;;;;;5094516;28;20412;-54
2022/03/24 07:29:49;;;;;;;58.60;31.50;;;;;;;;;;5112693;28;20465;-55
2022/03/24 07:32:18;;;;;;;62.27;30.80;;;;;;;;;;5112724;28;20835;-57
2022/03/24 07:34:44;;;;;;;60.43;32.43;;;;;;;;;;5112646;28;20504;-58
2022/03/24 07:37:10;;;;;;;64.47;31.73;;;;;;;;;;5112806;28;20427;-55
2022/03/24 07:39:36;;;;;;;62.13;32.10;;;;;;;;;;5094358;28;20413;-55
2022/03/24 07:42:02;;;;;;;66.83;31.63;;;;;;;;;;5112574;28;20408;-54
2022/03/24 07:44:29;;;;;;;67.43;32.40;;;;;;;;;;5108498;28;20458;-59
2022/03/24 07:46:55;;;;;;;60.60;31.33;;;;;;;;;;5095075;28;20429;-58
2022/03/24 07:49:21;;;;;;;67.53;32.47;;;;;;;;;;5110752;28;20416;-59
2022/03/24 07:51:47;;;;;;;63.40;32.23;;;;;;;;;;5108048;28;20398;-57
2022/03/24 07:54:13;;;;;;;57.73;30.67;;;;;;;;;;5091506;28;20466;-57
2022/03/24 07:56:39;;;;;;;60.50;31.77;;;;;;;;;;5091455;28;20408;-58
2022/03/24 07:59:06;;;;;;;60.10;31.20;;;;;;;;;;5091219;28;20417;-55
2022/03/24 08:01:33;;;;;;;58.37;32.50;;;;;;;;;;5105068;28;20411;-58
2022/03/24 08:04:00;;;;;;;55.30;30.80;;;;;;;;;;5090106;28;20417;-55
2022/03/24 08:06:28;;;;;;;59.33;31.50;;;;;;;;;;5111841;28;20409;-56
2022/03/24 08:08:54;;;;;;;63.80;34.13;;;;;;;;;;5093520;28;20486;-56
2022/03/24 08:11:22;;;;;;;59.90;32.60;;;;;;;;;;5114891;28;20507;-58
2022/03/24 08:13:53;;;;;;;55.03;32.20;;;;;;;;;;5115482;28;20513;-57
2022/03/24 08:16:20;;;;;;;63.13;32.70;;;;;;;;;;5115441;28;20446;-57
2022/03/24 08:18:46;;;;;;;60.50;32.47;;;;;;;;;;5100065;28;20784;-54
2022/03/24 08:21:12;;;;;;;61.50;33.40;;;;;;;;;;5094995;28;20404;-57
2022/03/24 08:23:38;;;;;;;72.93;34.13;;;;;;;;;;5094907;28;20448;-57
2022/03/24 08:26:05;;;;;;;59.53;32.90;;;;;;;;;;5094977;28;20461;-56
2022/03/24 08:28:31;;;;;;;62.40;33.10;;;;;;;;;;5095043;28;20504;-59
2022/03/24 08:30:57;;;;;;;63.13;33.07;;;;;;;;;;5094757;28;20413;-60
2022/03/24 08:33:23;;;;;;;55.20;32.63;;;;;;;;;;5094772;28;20886;-56
2022/03/24 08:35:52;;;;;;;71.33;33.80;;;;;;;;;;5094926;28;20421;-57
2022/03/24 08:38:18;;;;;;;65.13;33.87;;;;;;;;;;5094834;28;20886;-56
2022/03/24 08:40:47;;;;;;;57.17;32.90;;;;;;;;;;5076494;28;20873;-58
2022/03/24 08:43:16;;;;;;;60.60;31.60;;;;;;;;;;5094694;28;20865;-57
2022/03/24 08:45:42;;;;;;;62.40;33.57;;;;;;;;;;5076309;28;20422;-53
2022/03/24 08:48:08;;;;;;;64.13;33.67;;;;;;;;;;5094508;28;20480;-56
2022/03/24 08:50:34;;;;;;;59.57;32.37;;;;;;;;;;5094531;28;20494;-59
2022/03/24 08:53:03;;;;;;;57.40;33.47;;;;;;;;;;5110568;28;20897;-57
2022/03/24 08:55:29;;;;;;;64.30;33.70;;;;;;;;;;5114751;28;21010;-52
2022/03/24 08:57:55;;;;;;;61.70;34.50;;;;;;;;;;5114871;28;20837;-55
2022/03/24 09:00:23;;;;;;;69.07;34.07;;;;;;;;;;5115045;28;20788;-60
2022/03/24 09:02:49;;;;;;;59.97;33.23;;;;;;;;;;5114837;28;20409;-55
2022/03/24 09:05:18;;;;;;;64.67;34.03;;;;;;;;;;5114569;28;20417;-53
2022/03/24 09:07:45;;;;;;;64.53;34.10;;;;;;;;;;5109007;28;20412;-57
2022/03/24 09:10:12;;;;;;;62.90;33.83;;;;;;;;;;5102474;28;20401;-58
2022/03/24 09:12:39;;;;;;;60.67;33.30;;;;;;;;;;5111348;28;20913;-55
2022/03/24 09:15:07;;;;;;;69.80;35.23;;;;;;;;;;5102703;28;21004;-58
2022/03/24 09:17:34;;;;;;;64.50;35.00;;;;;;;;;;5101457;28;20490;-56
2022/03/24 09:20:02;;;;;;;68.07;34.77;;;;;;;;;;5092845;28;20448;-57
2022/03/24 09:22:29;;;;;;;70.77;34.90;;;;;;;;;;5107099;28;20466;-55
2022/03/24 09:24:56;;;;;;;65.33;35.17;;;;;;;;;;5099419;28;20471;-58
2022/03/24 09:27:22;;;;;;;69.13;34.00;;;;;;;;;;5096783;28;20980;-59
2022/03/24 09:29:49;;;;;;;74.40;36.00;;;;;;;;;;5105448;28;20496;-58
2022/03/24 09:32:16;;;;;;;60.00;34.33;;;;;;;;;;5108684;28;21002;-57
2022/03/24 09:34:43;;;;;;;75.10;35.47;;;;;;;;;;5113889;28;20601;-57
2022/03/24 09:37:09;;;;;;;63.87;35.20;;;;;;;;;;5113939;28;20919;-56
2022/03/24 09:39:36;;;;;;;72.57;35.30;;;;;;;;;;5114122;28;20412;-56
2022/03/24 09:42:05;;;;;;;62.30;35.73;;;;;;;;;;5113892;28;20404;-54
2022/03/24 09:44:31;;;;;;;60.97;33.83;;;;;;;;;;5113893;28;20752;-55
2022/03/24 09:46:57;;;;;;;79.17;35.97;;;;;;;;;;5114007;28;20484;-59
2022/03/24 09:49:23;;;;;;;65.60;35.13;;;;;;;;;;5113794;28;20916;-60
2022/03/24 09:51:50;;;;;;;61.80;32.13;;;;;;;;;;5113835;28;20401;-58
2022/03/24 09:54:16;;;;;;;74.77;34.70;;;;;;;;;;5113418;28;20468;-57
2022/03/24 09:56:45;;;;;;;74.63;34.70;;;;;;;;;;5113775;28;20488;-54
2022/03/24 09:59:11;;;;;;;63.27;34.03;;;;;;;;;;5100940;28;20406;-56
2022/03/24 10:01:39;;;;;;;66.37;35.10;;;;;;;;;;5110226;28;20468;-57
2022/03/24 10:04:09;;;;;;;75.63;34.10;;;;;;;;;;5092987;28;20420;-53
2022/03/24 10:06:36;;;;;;;61.17;33.83;;;;;;;;;;5102137;28;20400;-59
2022/03/24 10:09:03;;;;;;;60.33;34.27;;;;;;;;;;5113312;28;20405;-62
2022/03/24 10:11:29;;;;;;;67.43;33.87;;;;;;;;;;5113472;28;20400;-56
2022/03/24 10:13:57;;;;;;;56.03;33.07;;;;;;;;;;5095300;28;20573;-57
2022/03/24 10:16:39;;;;;;;62.00;32.70;;;;;;;;;;5113206;28;20417;-58
2022/03/24 10:19:10;;;;;;;71.67;34.40;;;;;;;;;;5113072;28;20960;-60
2022/03/24 10:21:38;;;;;;;61.87;33.10;;;;;;;;;;5113129;28;20405;-59
2022/03/24 10:24:15;;;;;;;58.93;32.83;;;;;;;;;;5112976;28;20412;-59
2022/03/24 10:26:48;;;;;;;55.27;33.40;;;;;;;;;;5113106;28;20920;-60
2022/03/24 10:29:18;;;;;;;59.43;32.93;;;;;;;;;;5112969;28;20488;-57
2022/03/24 10:31:47;;;;;;;61.03;32.70;;;;;;;;;;5107675;28;20463;-58
2022/03/24 10:34:13;;;;;;;60.10;31.70;;;;;;;;;;5091427;28;20542;-59
2022/03/24 10:36:41;;;;;;;62.80;31.67;;;;;;;;;;5074289;28;20470;-60
2022/03/24 10:39:08;;;;;;;51.37;30.87;;;;;;;;;;5092622;28;20494;-63
2022/03/24 10:41:38;;;;;;;62.87;29.73;;;;;;;;;;5108020;28;20417;-55
2022/03/24 10:44:08;;;;;;;56.10;31.03;;;;;;;;;;5112614;28;20458;-56
2022/03/24 10:46:36;;;;;;;58.57;30.83;;;;;;;;;;5112911;28;20425;-54
2022/03/24 10:49:19;;;;;;;54.20;30.80;;;;;;;;;;5112696;28;20564;-56
2022/03/24 10:51:46;;;;;;;51.50;30.30;;;;;;;;;;5112627;28;20517;-54
2022/03/24 10:54:38;;;;;;;51.63;31.07;;;;;;;;;;5112410;28;20468;-57
2022/03/24 10:57:07;;;;;;;57.20;32.10;;;;;;;;;;5112684;28;20401;-56
2022/03/24 10:59:40;;;;;;;53.13;31.70;;;;;;;;;;5094563;28;20773;-60
2022/03/24 11:02:07;;;;;;;56.40;31.77;;;;;;;;;;5112330;28;20405;-56
2022/03/24 11:04:33;;;;;;;57.17;33.40;;;;;;;;;;5112350;28;20815;-59
2022/03/24 11:06:59;;;;;;;56.53;32.37;;;;;;;;;;5112348;28;20498;-57
2022/03/24 11:09:29;;;;;;;58.53;33.50;;;;;;;;;;5112630;28;20486;-57
2022/03/24 11:12:14;;;;;;;55.83;32.67;;;;;;;;;;5112373;28;20441;-56
2022/03/24 11:14:41;;;;;;;61.70;32.53;;;;;;;;;;5093973;28;20469;-58
2022/03/24 11:17:08;;;;;;;53.23;32.13;;;;;;;;;;5112207;28;20500;-57
2022/03/24 11:19:34;;;;;;;62.57;32.23;;;;;;;;;;5112098;28;21058;-58
2022/03/24 11:22:03;;;;;;;60.60;32.10;;;;;;;;;;5112114;28;20453;-58
2022/03/24 11:24:29;;;;;;;58.70;33.27;;;;;;;;;;5093883;28;20507;-57
2022/03/24 11:26:55;;;;;;;58.10;31.37;;;;;;;;;;5112371;28;20416;-61
2022/03/24 11:29:21;;;;;;;54.63;30.80;;;;;;;;;;5112370;28;20412;-61
2022/03/24 11:31:47;;;;;;;53.83;31.47;;;;;;;;;;5111937;28;20461;-56
2022/03/24 11:34:14;;;;;;;56.30;32.60;;;;;;;;;;5111817;28;20982;-63
2022/03/24 11:36:41;;;;;;;55.17;31.43;;;;;;;;;;5112157;28;20474;-58
2022/03/24 11:39:09;;;;;;;58.50;31.83;;;;;;;;;;5112426;28;20424;-58
2022/03/24 11:41:52;;;;;;;53.30;31.63;;;;;;;;;;5112448;28;20413;-57
2022/03/24 11:44:27;;;;;;;91.20;31.30;;;;;;;;;;5112480;28;20417;-58
2022/03/24 11:46:55;;;;;;;49.30;30.43;;;;;;;;;;5098720;28;20811;-61
2022/03/24 11:49:25;;;;;;;54.10;31.50;;;;;;;;;;5116920;28;20770;-56
2022/03/24 11:52:11;;;;;;;54.13;30.20;;;;;;;;;;5116880;28;20415;-64
2022/03/24 11:54:49;;;;;;;49.70;29.10;;;;;;;;;;5115747;28;20810;-60
2022/03/24 11:57:29;;;;;;;55.00;30.53;;;;;;;;;;5107382;28;20402;-58
2022/03/24 12:00:14;;;;;;;48.93;29.83;;;;;;;;;;5100138;28;20420;-60
2022/03/24 12:02:43;;;;;;;58.23;30.70;;;;;;;;;;5077394;28;20406;-60
2022/03/24 12:05:10;;;;;;;54.13;30.77;;;;;;;;;;5095598;28;20409;-60
2022/03/24 12:07:36;;;;;;;48.23;30.10;;;;;;;;;;5099296;28;20432;-60
2022/03/24 12:10:07;;;;;;;56.77;31.30;;;;;;;;;;5104979;28;20413;-60
2022/03/24 12:12:34;;;;;;;49.90;30.73;;;;;;;;;;5098238;28;20572;-59
2022/03/24 12:15:09;;;;;;;54.07;30.27;;;;;;;;;;5095398;28;20999;-60
2022/03/24 12:17:35;;;;;;;53.07;30.87;;;;;;;;;;5095484;28;20394;-59
2022/03/24 12:20:03;;;;;;;50.70;30.90;;;;;;;;;;5103239;28;20509;-57
2022/03/24 12:22:29;;;;;;;48.97;30.57;;;;;;;;;;5097768;28;20774;-55
2022/03/24 12:25:02;;;;;;;48.03;31.33;;;;;;;;;;5103916;28;20882;-58
2022/03/24 12:27:29;;;;;;;61.30;32.10;;;;;;;;;;5100703;28;20496;-58
2022/03/24 12:30:14;;;;;;;48.87;30.67;;;;;;;;;;5095180;28;20409;-58
2022/03/24 12:32:41;;;;;;;54.63;31.17;;;;;;;;;;5094980;28;20405;-57
2022/03/24 12:35:07;;;;;;;52.60;31.13;;;;;;;;;;5094880;28;20473;-56
2022/03/24 12:37:33;;;;;;;48.80;32.10;;;;;;;;;;5100059;28;20416;-59
2022/03/24 12:40:05;;;;;;;59.30;32.07;;;;;;;;;;5106108;28;20487;-61
2022/03/24 12:42:44;;;;;;;48.03;30.10;;;;;;;;;;5115072;28;20409;-60
2022/03/24 12:45:11;;;;;;;51.73;29.60;;;;;;;;;;5114899;28;20412;-58
2022/03/24 12:47:38;;;;;;;50.70;31.27;;;;;;;;;;5093700;28;20419;-55
2022/03/24 12:50:08;;;;;;;54.33;30.43;;;;;;;;;;5114815;28;20454;-58
2022/03/24 12:52:52;;;;;;;44.33;29.50;;;;;;;;;;5115005;28;20428;-59
2022/03/24 12:55:23;;;;;;;50.90;28.83;;;;;;;;;;5091103;28;20559;-61
2022/03/24 12:57:59;;;;;;;51.70;29.73;;;;;;;;;;5077335;28;20820;-59
2022/03/24 13:00:30;;;;;;;44.73;28.07;;;;;;;;;;5094721;28;20397;-55
2022/03/24 13:02:57;;;;;;;41.70;27.73;;;;;;;;;;5094738;28;20402;-55
2022/03/24 13:05:25;;;;;;;42.40;28.20;;;;;;;;;;5095945;28;20437;-58
2022/03/24 13:07:52;;;;;;;52.67;29.57;;;;;;;;;;5076348;28;20945;-58
2022/03/24 13:10:19;;;;;;;44.60;29.30;;;;;;;;;;5110090;28;20405;-62
2022/03/24 13:12:47;;;;;;;42.43;27.90;;;;;;;;;;5114697;28;20393;-58
2022/03/24 13:15:21;;;;;;;43.60;29.50;;;;;;;;;;5096006;28;20833;-63
2022/03/24 13:17:51;;;;;;;45.30;29.03;;;;;;;;;;5098229;28;20459;-62
2022/03/24 13:20:20;;;;;;;42.57;29.27;;;;;;;;;;5093944;28;20528;-62
2022/03/24 13:22:48;;;;;;;45.90;28.90;;;;;;;;;;5075965;28;20402;-60
2022/03/24 13:25:15;;;;;;;42.30;28.73;;;;;;;;;;5094078;28;20401;-61
2022/03/24 13:27:42;;;;;;;43.23;28.77;;;;;;;;;;5093926;28;20410;-62
2022/03/24 13:30:09;;;;;;;45.63;29.50;;;;;;;;;;5094068;28;20556;-59
2022/03/24 13:32:36;;;;;;;48.87;29.17;;;;;;;;;;5075771;28;20417;-63
2022/03/24 13:35:04;;;;;;;43.63;28.50;;;;;;;;;;5093664;28;20818;-61
2022/03/24 13:37:51;;;;;;;46.43;27.73;;;;;;;;;;5093824;28;20762;-62
2022/03/24 13:40:23;;;;;;;47.87;28.40;;;;;;;;;;5098736;28;20396;-62
2022/03/24 13:42:50;;;;;;;46.63;28.43;;;;;;;;;;5114126;28;20404;-60
2022/03/24 13:45:16;;;;;;;43.00;28.07;;;;;;;;;;5113779;28;20393;-61
2022/03/24 13:48:04;;;;;;;45.37;28.90;;;;;;;;;;5113979;28;20409;-56
2022/03/24 13:50:31;;;;;;;46.90;29.40;;;;;;;;;;5113508;28;20762;-55
2022/03/24 13:52:58;;;;;;;59.60;29.90;;;;;;;;;;5113886;28;20397;-62
2022/03/24 13:55:25;;;;;;;42.77;28.73;;;;;;;;;;5113781;28;20466;-64
2022/03/24 13:58:03;;;;;;;45.53;29.97;;;;;;;;;;5113709;28;20489;-61
2022/03/24 14:00:40;;;;;;;45.17;28.50;;;;;;;;;;5094162;28;20418;-61
2022/03/24 14:03:10;;;;;;;53.13;29.13;;;;;;;;;;5093456;28;20408;-64
2022/03/24 14:05:54;;;;;;;42.50;29.47;;;;;;;;;;5093551;28;20417;-64
2022/03/24 14:08:29;;;;;;;42.90;29.57;;;;;;;;;;5075665;28;20497;-62
2022/03/24 14:10:59;;;;;;;41.50;28.57;;;;;;;;;;5093774;28;20763;-60
2022/03/24 14:13:32;;;;;;;43.30;28.30;;;;;;;;;;5093759;28;20757;-62
2022/03/24 14:16:08;;;;;;;41.80;29.07;;;;;;;;;;5093646;28;20962;-63
2022/03/24 14:18:34;;;;;;;40.10;28.20;;;;;;;;;;5093464;28;20463;-55
2022/03/24 14:21:00;;;;;;;43.00;28.97;;;;;;;;;;5093851;28;20557;-55